createdAt,value
2018-09-06T00:01:10.557Z,19.60
2018-09-06T00:03:38.736Z,19.60
2018-09-06T00:06:06.951Z,19.50
2018-09-06T00:08:35.140Z,19.40
2018-09-06T00:11:03.320Z,19.30
2018-09-06T00:13:31.534Z,19.30
2018-09-06T00:15:59.726Z,19.40
2018-09-06T00:18:27.900Z,19.40
2018-09-06T00:20:56.117Z,19.40
2018-09-06T00:23:24.304Z,19.40
2018-09-06T00:25:52.507Z,19.30
2018-09-06T00:28:20.677Z,19.30
2018-09-06T00:30:48.894Z,19.40
2018-09-06T00:33:17.079Z,19.40
2018-09-06T00:35:45.295Z,19.40
2018-09-06T00:38:13.480Z,19.40
2018-09-06T00:40:41.690Z,19.30
2018-09-06T00:43:09.871Z,19.30
2018-09-06T00:45:38.072Z,19.30
2018-09-06T00:48:06.263Z,19.20
2018-09-06T00:50:38.753Z,19.20
2018-09-06T00:53:06.990Z,19.20
2018-09-06T00:55:35.472Z,19.20
2018-09-06T00:58:03.674Z,19.20
2018-09-06T01:00:31.862Z,19.10
2018-09-06T01:03:00.049Z,19.10
2018-09-06T01:05:28.867Z,19.10
2018-09-06T01:07:57.078Z,19.10
2018-09-06T01:10:25.323Z,19.10
2018-09-06T01:12:53.554Z,19.10
2018-09-06T01:15:21.730Z,19.00
2018-09-06T01:17:49.942Z,19.00
2018-09-06T01:20:18.210Z,18.90
2018-09-06T01:22:46.442Z,18.90
2018-09-06T01:25:14.755Z,18.90
2018-09-06T01:27:42.955Z,18.90
2018-09-06T01:30:11.153Z,18.90
2018-09-06T01:32:39.418Z,18.80
2018-09-06T01:35:07.644Z,18.80
2018-09-06T01:37:35.859Z,18.70
2018-09-06T01:40:04.098Z,18.70
2018-09-06T01:42:32.319Z,18.80
2018-09-06T01:45:00.500Z,18.80
2018-09-06T01:47:28.731Z,18.80
2018-09-06T01:49:56.935Z,18.80
2018-09-06T01:52:25.165Z,18.80
2018-09-06T01:54:53.374Z,18.80
2018-09-06T01:57:21.569Z,18.80
2018-09-06T01:59:49.767Z,18.80
2018-09-06T02:02:18.378Z,18.80
2018-09-06T02:04:46.595Z,18.80
2018-09-06T02:07:14.819Z,18.70
2018-09-06T02:09:43.020Z,18.70
2018-09-06T02:12:11.250Z,18.70
2018-09-06T02:14:39.470Z,18.70
2018-09-06T02:17:07.679Z,18.70
2018-09-06T02:19:35.881Z,18.80
2018-09-06T02:22:04.075Z,18.70
2018-09-06T02:24:32.329Z,18.60
2018-09-06T02:27:00.467Z,18.60
2018-09-06T02:29:28.675Z,18.60
2018-09-06T02:31:56.953Z,18.70
2018-09-06T02:34:25.172Z,18.60
2018-09-06T02:36:53.448Z,18.60
2018-09-06T02:39:21.661Z,18.60
2018-09-06T02:41:49.882Z,18.50
2018-09-06T02:44:18.103Z,18.50
2018-09-06T02:46:46.302Z,18.60
2018-09-06T02:49:14.558Z,18.50
2018-09-06T02:51:42.764Z,18.50
2018-09-06T02:54:10.970Z,18.50
2018-09-06T02:56:39.188Z,18.50
2018-09-06T02:59:07.411Z,18.50
2018-09-06T03:01:35.601Z,18.50
2018-09-06T03:04:03.815Z,18.40
2018-09-06T03:06:32.022Z,18.40
2018-09-06T03:09:00.233Z,18.40
2018-09-06T03:12:02.910Z,18.40
2018-09-06T03:14:31.131Z,18.40
2018-09-06T03:16:59.451Z,18.40
2018-09-06T03:19:27.957Z,18.30
2018-09-06T03:21:56.177Z,18.30
2018-09-06T03:24:24.374Z,18.20
2018-09-06T03:26:52.588Z,18.10
2018-09-06T03:29:20.809Z,18.10
2018-09-06T03:31:49.021Z,18.20
2018-09-06T03:34:17.242Z,18.20
2018-09-06T03:36:45.454Z,18.30
2018-09-06T03:39:13.658Z,18.20
2018-09-06T03:41:41.868Z,18.20
2018-09-06T03:44:10.080Z,18.20
2018-09-06T03:46:38.309Z,18.20
2018-09-06T03:49:06.519Z,18.20
2018-09-06T03:51:34.719Z,18.20
2018-09-06T03:54:02.931Z,18.20
2018-09-06T03:56:31.133Z,18.20
2018-09-06T03:58:59.373Z,18.10
2018-09-06T04:01:27.561Z,18.10
2018-09-06T04:03:55.794Z,18.00
2018-09-06T04:06:24.002Z,17.90
2018-09-06T04:08:52.223Z,18.00
2018-09-06T04:11:20.433Z,18.00
2018-09-06T04:13:48.636Z,18.00
2018-09-06T04:16:16.878Z,18.00
2018-09-06T04:18:45.098Z,18.00
2018-09-06T04:21:13.316Z,18.00
2018-09-06T04:23:41.517Z,18.00
2018-09-06T04:26:09.731Z,18.00
2018-09-06T04:28:37.960Z,18.00
2018-09-06T04:31:06.192Z,18.00
2018-09-06T04:33:34.402Z,18.00
2018-09-06T04:36:02.668Z,18.00
2018-09-06T04:38:31.296Z,17.90
2018-09-06T04:40:59.539Z,17.90
2018-09-06T04:43:27.716Z,17.90
2018-09-06T04:45:55.945Z,17.90
2018-09-06T04:48:24.139Z,17.90
2018-09-06T04:50:52.351Z,17.90
2018-09-06T04:53:20.570Z,17.70
2018-09-06T04:55:48.818Z,17.70
2018-09-06T04:58:17.030Z,17.70
2018-09-06T05:00:45.262Z,17.80
2018-09-06T05:03:13.442Z,17.80
2018-09-06T05:05:41.650Z,17.80
2018-09-06T05:08:09.885Z,17.70
2018-09-06T05:10:38.106Z,17.70
2018-09-06T05:13:06.295Z,17.70
2018-09-06T05:15:34.524Z,17.70
2018-09-06T05:18:02.907Z,17.70
2018-09-06T05:20:31.217Z,17.70
2018-09-06T05:22:59.426Z,17.70
2018-09-06T05:25:27.656Z,17.70
2018-09-06T05:27:55.888Z,17.60
2018-09-06T05:30:24.109Z,17.70
2018-09-06T05:32:52.337Z,17.50
2018-09-06T05:35:21.151Z,17.60
2018-09-06T05:37:49.544Z,17.60
2018-09-06T05:40:17.924Z,17.60
2018-09-06T05:42:46.182Z,17.60
2018-09-06T05:45:14.384Z,17.60
2018-09-06T05:47:42.636Z,17.70
2018-09-06T05:50:10.846Z,17.70
2018-09-06T05:52:39.047Z,17.80
2018-09-06T05:55:07.240Z,17.80
2018-09-06T05:57:35.450Z,17.80
2018-09-06T06:00:07.970Z,17.90
2018-09-06T06:02:36.104Z,17.90
2018-09-06T06:05:04.338Z,17.90
2018-09-06T06:07:43.840Z,17.90
2018-09-06T06:10:12.029Z,17.90
2018-09-06T06:12:40.235Z,18.00
2018-09-06T06:15:08.586Z,18.00
2018-09-06T06:17:36.827Z,18.10
2018-09-06T06:20:05.064Z,18.00
2018-09-06T06:22:33.254Z,18.10
2018-09-06T06:25:01.453Z,18.20
2018-09-06T06:27:29.657Z,18.20
2018-09-06T06:29:57.876Z,18.20
2018-09-06T06:32:26.105Z,18.20
2018-09-06T06:34:54.325Z,18.30
2018-09-06T06:37:22.552Z,18.30
2018-09-06T06:39:50.849Z,18.40
2018-09-06T06:42:19.006Z,18.40
2018-09-06T06:44:47.211Z,18.50
2018-09-06T06:47:15.444Z,18.50
2018-09-06T06:49:43.662Z,18.50
2018-09-06T06:52:11.893Z,18.60
2018-09-06T06:54:40.204Z,18.70
2018-09-06T06:57:08.419Z,18.60
2018-09-06T06:59:36.618Z,18.70
2018-09-06T07:02:04.880Z,18.70
2018-09-06T07:04:33.104Z,18.70
2018-09-06T07:07:01.329Z,18.70
2018-09-06T07:09:29.495Z,18.70
2018-09-06T07:11:57.723Z,18.70
2018-09-06T07:14:25.982Z,18.80
2018-09-06T07:16:54.196Z,19.00
2018-09-06T07:19:22.399Z,19.00
2018-09-06T07:21:50.612Z,19.00
2018-09-06T07:24:19.136Z,19.00
2018-09-06T07:26:47.327Z,19.10
2018-09-06T07:29:15.535Z,19.30
2018-09-06T07:31:43.732Z,19.20
2018-09-06T07:34:11.947Z,19.30
2018-09-06T07:36:40.158Z,19.30
2018-09-06T07:39:09.127Z,19.40
2018-09-06T07:41:37.399Z,19.40
2018-09-06T07:44:05.783Z,19.50
2018-09-06T07:46:34.489Z,19.50
2018-09-06T07:49:02.729Z,19.50
2018-09-06T07:51:30.999Z,19.50
2018-09-06T07:53:59.428Z,19.50
2018-09-06T07:56:27.622Z,19.60
2018-09-06T07:58:55.828Z,19.70
2018-09-06T08:01:24.026Z,19.70
2018-09-06T08:03:52.275Z,19.70
2018-09-06T08:06:20.450Z,19.70
2018-09-06T08:08:48.662Z,19.70
2018-09-06T08:11:16.902Z,19.70
2018-09-06T08:13:45.122Z,19.70
2018-09-06T08:16:13.317Z,19.80
2018-09-06T08:18:41.549Z,19.90
2018-09-06T08:21:09.744Z,19.90
2018-09-06T08:23:37.954Z,19.90
2018-09-06T08:26:06.179Z,20.00
2018-09-06T08:28:34.375Z,20.10
2018-09-06T08:31:02.667Z,20.10
2018-09-06T08:33:30.773Z,20.10
2018-09-06T08:35:59.006Z,20.00
2018-09-06T08:38:27.244Z,20.20
2018-09-06T08:40:55.445Z,20.10
2018-09-06T08:43:23.650Z,20.20
2018-09-06T08:45:51.863Z,20.20
2018-09-06T08:48:20.042Z,20.20
2018-09-06T08:50:48.244Z,20.20
2018-09-06T08:53:16.466Z,20.20
2018-09-06T08:55:44.682Z,20.20
2018-09-06T08:58:12.884Z,20.20
2018-09-06T09:00:41.787Z,20.30
2018-09-06T09:03:10.766Z,20.40
2018-09-06T09:05:39.005Z,20.50
2018-09-06T09:08:07.751Z,20.70
2018-09-06T09:10:36.034Z,20.70
2018-09-06T09:13:04.348Z,20.70
2018-09-06T09:15:32.508Z,20.90
2018-09-06T09:18:00.711Z,21.10
2018-09-06T09:20:28.992Z,21.20
2018-09-06T09:22:57.274Z,21.40
2018-09-06T09:25:25.518Z,21.60
2018-09-06T09:27:53.727Z,21.70
2018-09-06T09:30:21.932Z,21.80
2018-09-06T09:32:50.146Z,21.90
2018-09-06T09:35:18.354Z,22.00
2018-09-06T09:37:46.578Z,22.10
2018-09-06T09:40:14.756Z,22.30
2018-09-06T09:42:42.971Z,22.50
2018-09-06T09:45:11.160Z,22.60
2018-09-06T09:47:39.353Z,22.70
2018-09-06T09:50:07.571Z,22.70
2018-09-06T09:52:35.755Z,22.70
2018-09-06T09:55:03.969Z,22.70
2018-09-06T09:57:32.192Z,22.70
2018-09-06T10:00:00.414Z,22.80
2018-09-06T10:02:33.743Z,23.00
2018-09-06T10:05:07.378Z,23.10
2018-09-06T10:07:41.007Z,23.30
2018-09-06T10:10:09.225Z,23.50
2018-09-06T10:12:37.431Z,23.60
2018-09-06T10:15:05.625Z,23.70
2018-09-06T10:17:33.825Z,23.80
2018-09-06T10:20:02.024Z,23.80
2018-09-06T10:22:30.271Z,24.00
2018-09-06T10:24:59.888Z,24.10
2018-09-06T10:27:28.097Z,24.20
2018-09-06T10:29:56.291Z,24.30
2018-09-06T10:32:24.506Z,24.40
2018-09-06T10:34:52.702Z,24.50
2018-09-06T10:37:20.916Z,24.80
2018-09-06T10:39:55.921Z,24.90
2018-09-06T10:42:24.141Z,24.80
2018-09-06T10:44:52.477Z,24.90
2018-09-06T10:47:20.703Z,25.00
2018-09-06T10:49:48.914Z,25.10
2018-09-06T10:52:17.139Z,25.20
2018-09-06T10:54:45.566Z,25.30
2018-09-06T10:57:13.923Z,25.40
2018-09-06T10:59:42.125Z,25.40
2018-09-06T11:02:10.501Z,25.50
2018-09-06T11:04:38.747Z,25.30
2018-09-06T11:07:07.203Z,25.40
2018-09-06T11:09:35.507Z,25.50
2018-09-06T11:12:03.726Z,25.60
2018-09-06T11:14:31.939Z,25.50
2018-09-06T11:17:00.139Z,25.10
2018-09-06T11:19:28.316Z,25.20
2018-09-06T11:21:56.709Z,25.50
2018-09-06T11:24:24.759Z,25.80
2018-09-06T11:26:53.054Z,25.70
2018-09-06T11:29:21.283Z,26.00
2018-09-06T11:31:49.519Z,25.90
2018-09-06T11:34:17.791Z,26.10
2018-09-06T11:36:46.661Z,26.40
2018-09-06T11:39:14.877Z,26.40
2018-09-06T11:41:43.076Z,26.30
2018-09-06T11:44:11.273Z,26.50
2018-09-06T11:46:39.574Z,26.80
2018-09-06T11:49:07.738Z,27.10
2018-09-06T11:51:35.942Z,27.10
2018-09-06T11:54:04.167Z,27.10
2018-09-06T11:56:32.348Z,27.20
2018-09-06T11:59:00.561Z,27.10
2018-09-06T12:01:28.790Z,26.90
2018-09-06T12:03:56.984Z,26.90
2018-09-06T12:06:25.194Z,27.20
2018-09-06T12:08:53.445Z,27.40
2018-09-06T12:11:21.623Z,27.00
2018-09-06T12:13:50.085Z,26.60
2018-09-06T12:16:18.375Z,26.90
2018-09-06T12:18:46.596Z,27.00
2018-09-06T12:21:14.818Z,27.00
2018-09-06T12:23:43.037Z,26.90
2018-09-06T12:26:11.259Z,26.70
2018-09-06T12:28:39.490Z,26.90
2018-09-06T12:31:07.715Z,27.10
2018-09-06T12:33:35.994Z,27.30
2018-09-06T12:36:04.480Z,27.10
2018-09-06T12:38:32.760Z,26.50
2018-09-06T12:41:00.916Z,26.10
2018-09-06T12:43:29.109Z,26.40
2018-09-06T12:45:57.317Z,26.50
2018-09-06T12:48:25.607Z,26.40
2018-09-06T12:50:53.840Z,26.20
2018-09-06T12:53:22.038Z,26.20
2018-09-06T12:55:50.297Z,26.20
2018-09-06T12:58:18.479Z,26.00
2018-09-06T13:00:46.705Z,25.90
2018-09-06T13:03:14.911Z,25.60
2018-09-06T13:05:43.122Z,25.40
2018-09-06T13:08:11.430Z,25.30
2018-09-06T13:10:39.575Z,25.40
2018-09-06T13:13:07.814Z,25.30
2018-09-06T13:15:36.054Z,25.30
2018-09-06T13:18:04.268Z,25.40
2018-09-06T13:20:32.484Z,25.70
2018-09-06T13:23:00.668Z,25.60
2018-09-06T13:25:28.900Z,25.60
2018-09-06T13:27:57.105Z,26.00
2018-09-06T13:30:25.333Z,26.40
2018-09-06T13:32:53.567Z,26.30
2018-09-06T13:35:21.793Z,26.30
2018-09-06T13:37:50.023Z,26.10
2018-09-06T13:40:18.443Z,25.50
2018-09-06T13:42:46.740Z,25.60
2018-09-06T13:45:15.029Z,25.60
2018-09-06T13:47:43.334Z,25.60
2018-09-06T13:50:11.539Z,25.50
2018-09-06T13:52:39.753Z,25.50
2018-09-06T13:55:07.940Z,25.30
2018-09-06T13:57:36.152Z,25.30
2018-09-06T14:00:04.738Z,25.40
2018-09-06T14:02:32.851Z,25.20
2018-09-06T14:05:01.102Z,25.00
2018-09-06T14:07:29.283Z,25.00
2018-09-06T14:09:57.471Z,24.70
2018-09-06T14:12:25.697Z,24.60
2018-09-06T14:14:53.902Z,23.80
2018-09-06T14:17:22.099Z,23.50
2018-09-06T14:19:50.274Z,23.40
2018-09-06T14:22:18.553Z,23.10
2018-09-06T14:24:46.787Z,22.90
2018-09-06T14:27:15.004Z,22.80
2018-09-06T14:29:43.334Z,22.70
2018-09-06T14:32:11.621Z,22.30
2018-09-06T14:34:39.784Z,21.70
2018-09-06T14:37:07.997Z,21.10
2018-09-06T14:39:36.263Z,20.30
2018-09-06T14:42:04.471Z,19.90
2018-09-06T14:44:32.871Z,20.30
2018-09-06T14:47:01.084Z,20.40
2018-09-06T14:49:29.319Z,19.60
2018-09-06T14:51:57.727Z,19.70
2018-09-06T14:54:25.906Z,19.80
2018-09-06T14:56:54.407Z,19.60
2018-09-06T14:59:22.665Z,19.20
2018-09-06T15:01:50.984Z,19.20
2018-09-06T15:04:19.187Z,19.40
2018-09-06T15:06:47.378Z,19.80
2018-09-06T15:09:15.583Z,19.50
2018-09-06T15:11:43.793Z,19.60
2018-09-06T15:14:12.049Z,19.40
2018-09-06T15:16:40.554Z,19.40
2018-09-06T15:19:08.848Z,19.40
2018-09-06T15:21:37.075Z,19.60
2018-09-06T15:24:05.304Z,19.40
2018-09-06T15:26:33.615Z,19.40
2018-09-06T15:29:01.879Z,19.60
2018-09-06T15:31:30.079Z,19.70
2018-09-06T15:33:58.298Z,19.90
2018-09-06T15:36:26.516Z,20.20
2018-09-06T15:38:54.737Z,20.30
2018-09-06T15:41:22.939Z,20.20
2018-09-06T15:43:51.139Z,20.20
2018-09-06T15:46:19.335Z,20.00
2018-09-06T15:48:47.623Z,19.90
2018-09-06T15:51:15.912Z,20.10
2018-09-06T15:53:44.175Z,20.30
2018-09-06T15:56:12.366Z,20.40
2018-09-06T15:58:40.584Z,20.20
2018-09-06T16:01:08.839Z,20.10
2018-09-06T16:03:37.078Z,20.00
2018-09-06T16:06:05.259Z,20.00
2018-09-06T16:08:33.459Z,20.40
2018-09-06T16:11:01.668Z,20.20
2018-09-06T16:13:29.879Z,20.10
2018-09-06T16:15:58.062Z,19.90
2018-09-06T16:18:26.271Z,19.90
2018-09-06T16:20:54.463Z,20.20
2018-09-06T16:23:22.682Z,20.40
2018-09-06T16:25:50.896Z,20.20
2018-09-06T16:28:19.134Z,19.80
2018-09-06T16:30:47.344Z,19.90
2018-09-06T16:33:15.566Z,20.10
2018-09-06T16:35:43.767Z,20.30
2018-09-06T16:38:11.996Z,20.20
2018-09-06T16:40:40.225Z,19.90
2018-09-06T16:43:08.438Z,19.90
2018-09-06T16:45:36.651Z,19.90
2018-09-06T16:48:04.852Z,20.10
2018-09-06T16:50:33.102Z,20.30
2018-09-06T16:53:01.348Z,20.40
2018-09-06T16:55:29.564Z,20.40
2018-09-06T16:57:57.796Z,20.40
2018-09-06T17:00:26.895Z,20.00
2018-09-06T17:02:55.100Z,19.90
2018-09-06T17:05:23.361Z,19.90
2018-09-06T17:07:51.559Z,19.90
2018-09-06T17:10:19.799Z,20.00
2018-09-06T17:12:47.995Z,20.10
2018-09-06T17:15:16.210Z,20.10
2018-09-06T17:17:44.429Z,20.20
2018-09-06T17:20:12.690Z,20.30
2018-09-06T17:22:40.878Z,20.40
2018-09-06T17:25:09.074Z,20.30
2018-09-06T17:27:37.303Z,20.20
2018-09-06T17:30:05.521Z,20.20
2018-09-06T17:32:33.755Z,20.20
2018-09-06T17:35:01.966Z,20.10
2018-09-06T17:37:30.163Z,20.10
2018-09-06T17:39:58.375Z,20.10
2018-09-06T17:42:27.589Z,20.10
2018-09-06T17:44:55.779Z,20.10
2018-09-06T17:47:23.979Z,20.10
2018-09-06T17:49:52.245Z,20.00
2018-09-06T17:52:20.420Z,20.00
2018-09-06T17:54:48.624Z,19.90
2018-09-06T17:57:16.815Z,19.80
2018-09-06T17:59:45.851Z,19.80
2018-09-06T18:02:14.046Z,19.80
2018-09-06T18:04:42.281Z,19.70
2018-09-06T18:07:10.470Z,19.70
2018-09-06T18:09:38.679Z,19.70
2018-09-06T18:12:06.893Z,19.60
2018-09-06T18:14:35.110Z,19.60
2018-09-06T18:17:03.308Z,19.60
2018-09-06T18:19:31.510Z,19.60
2018-09-06T18:21:59.710Z,19.60
2018-09-06T18:24:27.961Z,19.50
2018-09-06T18:26:56.152Z,19.60
2018-09-06T18:29:24.424Z,19.60
2018-09-06T18:31:52.657Z,19.50
2018-09-06T18:34:20.835Z,19.50
2018-09-06T18:36:49.067Z,19.50
2018-09-06T18:39:17.326Z,19.50
2018-09-06T18:41:45.527Z,19.40
2018-09-06T18:44:13.758Z,19.40
2018-09-06T18:46:41.984Z,19.40
2018-09-06T18:49:10.219Z,19.40
2018-09-06T18:51:38.431Z,19.40
2018-09-06T18:54:06.640Z,19.40
2018-09-06T18:56:34.857Z,19.40
2018-09-06T18:59:03.051Z,19.30
2018-09-06T19:01:31.317Z,19.30
2018-09-06T19:03:59.529Z,19.30
2018-09-06T19:06:27.754Z,19.30
2018-09-06T19:08:55.949Z,19.30
2018-09-06T19:11:24.185Z,19.30
2018-09-06T19:13:52.367Z,19.30
2018-09-06T19:16:20.567Z,19.30
2018-09-06T19:18:48.774Z,19.20
2018-09-06T19:21:16.980Z,19.20
2018-09-06T19:23:45.179Z,19.20
2018-09-06T19:26:13.492Z,19.20
2018-09-06T19:28:41.631Z,19.20
2018-09-06T19:31:09.839Z,19.10
2018-09-06T19:33:38.050Z,19.10
2018-09-06T19:36:06.480Z,19.10
2018-09-06T19:38:34.683Z,19.10
2018-09-06T19:41:02.884Z,19.00
2018-09-06T19:43:31.114Z,19.00
2018-09-06T19:45:59.354Z,19.00
2018-09-06T19:48:27.556Z,19.00
2018-09-06T19:50:55.779Z,18.90
2018-09-06T19:53:24.025Z,18.90
2018-09-06T19:55:52.198Z,18.80
2018-09-06T19:58:20.410Z,18.90
2018-09-06T20:00:48.632Z,18.90
2018-09-06T20:03:16.926Z,18.80
2018-09-06T20:05:45.137Z,18.90
2018-09-06T20:08:13.442Z,18.90
2018-09-06T20:10:41.543Z,19.00
2018-09-06T20:13:09.855Z,18.90
2018-09-06T20:15:38.215Z,18.90
2018-09-06T20:18:06.414Z,18.80
2018-09-06T20:20:34.621Z,18.80
2018-09-06T20:23:02.833Z,18.80
2018-09-06T20:25:31.055Z,18.80
2018-09-06T20:27:59.317Z,18.80
2018-09-06T20:30:27.487Z,18.80
2018-09-06T20:32:55.709Z,18.80
2018-09-06T20:35:23.938Z,18.80
2018-09-06T20:37:52.193Z,18.80
2018-09-06T20:40:20.435Z,18.80
2018-09-06T20:42:48.643Z,18.80
2018-09-06T20:45:16.914Z,18.70
2018-09-06T20:47:45.235Z,18.80
2018-09-06T20:50:13.428Z,19.00
2018-09-06T20:52:41.663Z,18.90
2018-09-06T20:55:09.859Z,18.80
2018-09-06T20:57:38.082Z,18.70
2018-09-06T21:00:06.300Z,18.70
2018-09-06T21:02:38.573Z,18.70
2018-09-06T21:05:08.359Z,18.60
2018-09-06T21:07:36.607Z,18.60
2018-09-06T21:10:05.371Z,18.50
2018-09-06T21:12:33.584Z,18.50
2018-09-06T21:15:02.336Z,18.50
2018-09-06T21:17:30.533Z,18.50
2018-09-06T21:19:58.866Z,18.50
2018-09-06T21:22:27.061Z,18.50
2018-09-06T21:24:55.272Z,18.50
2018-09-06T21:27:23.505Z,18.50
2018-09-06T21:29:51.725Z,18.40
2018-09-06T21:32:20.122Z,18.40
2018-09-06T21:34:48.330Z,18.40
2018-09-06T21:37:16.547Z,18.30
2018-09-06T21:39:44.762Z,18.40
2018-09-06T21:42:12.959Z,18.40
2018-09-06T21:44:41.202Z,18.30
2018-09-06T21:47:09.439Z,18.40
2018-09-06T21:49:37.652Z,18.30
2018-09-06T21:52:05.909Z,18.20
2018-09-06T21:54:34.143Z,18.20
2018-09-06T21:57:02.601Z,18.20
2018-09-06T21:59:30.806Z,18.10
2018-09-06T22:01:59.074Z,18.10
2018-09-06T22:04:27.390Z,18.10
2018-09-06T22:06:55.560Z,18.20
2018-09-06T22:09:23.778Z,18.10
2018-09-06T22:11:52.283Z,18.10
2018-09-06T22:14:20.457Z,18.00
2018-09-06T22:16:48.662Z,18.00
2018-09-06T22:19:16.862Z,17.90
2018-09-06T22:21:45.084Z,17.90
2018-09-06T22:24:13.274Z,17.90
2018-09-06T22:26:41.477Z,17.90
2018-09-06T22:29:09.655Z,17.80
2018-09-06T22:31:37.899Z,17.70
2018-09-06T22:34:06.121Z,17.80
2018-09-06T22:36:34.326Z,17.80
2018-09-06T22:39:02.619Z,17.80
2018-09-06T22:41:30.858Z,17.90
2018-09-06T22:43:59.059Z,17.80
2018-09-06T22:46:27.272Z,17.70
2018-09-06T22:48:55.522Z,17.80
2018-09-06T22:51:23.678Z,17.80
2018-09-06T22:53:51.951Z,17.90
2018-09-06T22:56:20.151Z,17.90
2018-09-06T22:58:55.127Z,17.80
2018-09-06T23:01:23.328Z,17.70
2018-09-06T23:03:52.829Z,17.60
2018-09-06T23:06:21.542Z,17.70
2018-09-06T23:08:49.727Z,17.80
2018-09-06T23:11:17.951Z,17.80
2018-09-06T23:13:46.166Z,17.80
2018-09-06T23:16:14.410Z,17.80
2018-09-06T23:18:42.641Z,17.80
2018-09-06T23:21:10.853Z,17.70
2018-09-06T23:23:39.074Z,17.80
2018-09-06T23:26:07.603Z,17.90
2018-09-06T23:28:35.866Z,17.90
2018-09-06T23:31:04.354Z,18.00
2018-09-06T23:33:32.567Z,18.00
2018-09-06T23:36:00.810Z,18.00
2018-09-06T23:38:29.025Z,18.00
2018-09-06T23:40:57.792Z,18.10
2018-09-06T23:43:26.978Z,18.10
2018-09-06T23:45:56.306Z,18.10
2018-09-06T23:48:25.594Z,18.00
2018-09-06T23:50:54.690Z,17.80
2018-09-06T23:53:23.274Z,17.90
2018-09-06T23:55:51.471Z,18.00
2018-09-06T23:58:19.803Z,18.00
